sensor_id;sensor_type;location;lat;lon;timestamp;P1;durP1;ratioP1;P2;durP2;ratioP2
3943;SDS011;1986;52.546;13.428;2022-07-29T00:00:05;19.30;;;18.30;;
3943;SDS011;1986;52.546;13.428;2022-07-29T00:02:35;18.80;;;17.80;;
3943;SDS011;1986;52.546;13.428;2022-07-29T00:05:03;19.20;;;18.20;;
3943;SDS011;1986;52.546;13.428;2022-07-29T00:07:38;18.33;;;17.43;;
3943;SDS011;1986;52.546;13.428;2022-07-29T00:10:08;18.27;;;17.37;;
3943;SDS011;1986;52.546;13.428;2022-07-29T00:12:35;18.23;;;17.23;;
3943;SDS011;1986;52.546;13.428;2022-07-29T00:15:02;18.10;;;17.20;;
3943;SDS011;1986;52.546;13.428;2022-07-29T00:17:30;18.07;;;17.20;;
3943;SDS011;1986;52.546;13.428;2022-07-29T00:20:03;18.30;;;17.40;;
3943;SDS011;1986;52.546;13.428;2022-07-29T00:22:31;19.37;;;18.30;;
3943;SDS011;1986;52.546;13.428;2022-07-29T00:24:58;17.90;;;17.10;;
3943;SDS011;1986;52.546;13.428;2022-07-29T00:27:24;17.70;;;16.90;;
3943;SDS011;1986;52.546;13.428;2022-07-29T00:29:52;18.17;;;17.30;;
3943;SDS011;1986;52.546;13.428;2022-07-29T00:32:19;17.67;;;16.87;;
3943;SDS011;1986;52.546;13.428;2022-07-29T00:34:45;17.50;;;16.70;;
3943;SDS011;1986;52.546;13.428;2022-07-29T00:37:31;17.87;;;16.97;;
3943;SDS011;1986;52.546;13.428;2022-07-29T00:39:59;19.60;;;18.60;;
3943;SDS011;1986;52.546;13.428;2022-07-29T00:42:26;17.70;;;16.90;;
3943;SDS011;1986;52.546;13.428;2022-07-29T00:44:54;18.83;;;17.27;;
3943;SDS011;1986;52.546;13.428;2022-07-29T00:47:21;18.10;;;17.10;;
3943;SDS011;1986;52.546;13.428;2022-07-29T00:49:48;17.20;;;16.40;;
3943;SDS011;1986;52.546;13.428;2022-07-29T00:52:15;17.30;;;16.50;;
3943;SDS011;1986;52.546;13.428;2022-07-29T00:54:43;18.13;;;17.13;;
3943;SDS011;1986;52.546;13.428;2022-07-29T00:57:14;16.77;;;16.07;;
3943;SDS011;1986;52.546;13.428;2022-07-29T00:59:42;17.23;;;16.43;;
3943;SDS011;1986;52.546;13.428;2022-07-29T01:02:09;16.40;;;15.70;;
3943;SDS011;1986;52.546;13.428;2022-07-29T01:04:38;17.40;;;16.47;;
3943;SDS011;1986;52.546;13.428;2022-07-29T01:07:07;16.63;;;15.93;;
3943;SDS011;1986;52.546;13.428;2022-07-29T01:09:37;16.67;;;15.90;;
3943;SDS011;1986;52.546;13.428;2022-07-29T01:12:06;19.50;;;18.50;;
3943;SDS011;1986;52.546;13.428;2022-07-29T01:14:34;16.30;;;15.60;;
3943;SDS011;1986;52.546;13.428;2022-07-29T01:17:10;19.03;;;17.70;;
3943;SDS011;1986;52.546;13.428;2022-07-29T01:19:45;17.83;;;16.93;;
3943;SDS011;1986;52.546;13.428;2022-07-29T01:22:31;16.40;;;15.70;;
3943;SDS011;1986;52.546;13.428;2022-07-29T01:31:42;16.07;;;15.37;;
3943;SDS011;1986;52.546;13.428;2022-07-29T01:34:16;16.20;;;15.50;;
3943;SDS011;1986;52.546;13.428;2022-07-29T01:36:50;18.33;;;16.70;;
3943;SDS011;1986;52.546;13.428;2022-07-29T01:39:25;16.50;;;15.80;;
3943;SDS011;1986;52.546;13.428;2022-07-29T01:41:57;16.07;;;15.37;;
3943;SDS011;1986;52.546;13.428;2022-07-29T01:44:30;16.30;;;15.60;;
3943;SDS011;1986;52.546;13.428;2022-07-29T01:47:05;19.37;;;17.63;;
3943;SDS011;1986;52.546;13.428;2022-07-29T01:49:38;17.90;;;16.90;;
3943;SDS011;1986;52.546;13.428;2022-07-29T01:52:13;16.70;;;15.77;;
3943;SDS011;1986;52.546;13.428;2022-07-29T01:54:47;17.13;;;15.60;;
3943;SDS011;1986;52.546;13.428;2022-07-29T01:57:18;16.63;;;15.73;;
3943;SDS011;1986;52.546;13.428;2022-07-29T01:59:52;17.03;;;16.33;;
3943;SDS011;1986;52.546;13.428;2022-07-29T02:02:23;16.57;;;15.77;;
3943;SDS011;1986;52.546;13.428;2022-07-29T02:04:52;16.90;;;16.10;;
3943;SDS011;1986;52.546;13.428;2022-07-29T02:07:21;15.90;;;15.30;;
3943;SDS011;1986;52.546;13.428;2022-07-29T02:09:50;15.30;;;14.70;;
3943;SDS011;1986;52.546;13.428;2022-07-29T02:12:19;15.80;;;15.10;;
3943;SDS011;1986;52.546;13.428;2022-07-29T02:14:48;16.03;;;15.33;;
3943;SDS011;1986;52.546;13.428;2022-07-29T02:17:21;16.20;;;15.47;;
3943;SDS011;1986;52.546;13.428;2022-07-29T02:19:52;15.60;;;14.70;;
3943;SDS011;1986;52.546;13.428;2022-07-29T02:22:24;16.30;;;15.60;;
3943;SDS011;1986;52.546;13.428;2022-07-29T02:24:52;15.70;;;15.07;;
3943;SDS011;1986;52.546;13.428;2022-07-29T02:27:23;15.77;;;15.03;;
3943;SDS011;1986;52.546;13.428;2022-07-29T02:29:52;16.37;;;15.20;;
3943;SDS011;1986;52.546;13.428;2022-07-29T02:32:23;14.70;;;14.10;;
3943;SDS011;1986;52.546;13.428;2022-07-29T02:34:52;15.33;;;14.73;;
3943;SDS011;1986;52.546;13.428;2022-07-29T02:37:20;14.90;;;14.30;;
3943;SDS011;1986;52.546;13.428;2022-07-29T02:39:48;14.80;;;14.20;;
3943;SDS011;1986;52.546;13.428;2022-07-29T02:42:16;15.30;;;14.70;;
3943;SDS011;1986;52.546;13.428;2022-07-29T02:44:47;18.77;;;17.53;;
3943;SDS011;1986;52.546;13.428;2022-07-29T02:47:18;14.73;;;14.13;;
3943;SDS011;1986;52.546;13.428;2022-07-29T02:49:52;15.10;;;14.50;;
3943;SDS011;1986;52.546;13.428;2022-07-29T02:52:22;15.20;;;14.50;;
3943;SDS011;1986;52.546;13.428;2022-07-29T02:54:55;14.80;;;14.20;;
3943;SDS011;1986;52.546;13.428;2022-07-29T02:57:28;15.17;;;14.57;;
3943;SDS011;1986;52.546;13.428;2022-07-29T03:00:02;15.20;;;14.60;;
3943;SDS011;1986;52.546;13.428;2022-07-29T03:02:34;15.00;;;14.40;;
3943;SDS011;1986;52.546;13.428;2022-07-29T03:05:04;15.90;;;15.20;;
3943;SDS011;1986;52.546;13.428;2022-07-29T03:07:34;15.40;;;14.80;;
3943;SDS011;1986;52.546;13.428;2022-07-29T03:10:06;15.20;;;14.60;;
3943;SDS011;1986;52.546;13.428;2022-07-29T03:12:34;16.60;;;15.80;;
3943;SDS011;1986;52.546;13.428;2022-07-29T03:15:06;15.30;;;14.70;;
3943;SDS011;1986;52.546;13.428;2022-07-29T03:17:34;15.83;;;14.87;;
3943;SDS011;1986;52.546;13.428;2022-07-29T03:20:18;15.50;;;14.83;;
3943;SDS011;1986;52.546;13.428;2022-07-29T03:22:45;15.80;;;14.90;;
3943;SDS011;1986;52.546;13.428;2022-07-29T03:25:13;15.50;;;14.90;;
3943;SDS011;1986;52.546;13.428;2022-07-29T03:27:43;16.00;;;15.30;;
3943;SDS011;1986;52.546;13.428;2022-07-29T03:30:13;16.33;;;15.63;;
3943;SDS011;1986;52.546;13.428;2022-07-29T03:32:40;16.00;;;15.30;;
3943;SDS011;1986;52.546;13.428;2022-07-29T03:35:08;15.70;;;15.10;;
3943;SDS011;1986;52.546;13.428;2022-07-29T03:37:36;15.97;;;15.27;;
3943;SDS011;1986;52.546;13.428;2022-07-29T03:40:05;17.47;;;16.37;;
3943;SDS011;1986;52.546;13.428;2022-07-29T03:42:35;15.47;;;14.87;;
3943;SDS011;1986;52.546;13.428;2022-07-29T03:45:06;16.70;;;16.00;;
3943;SDS011;1986;52.546;13.428;2022-07-29T03:47:37;18.27;;;16.37;;
3943;SDS011;1986;52.546;13.428;2022-07-29T03:50:09;16.53;;;15.83;;
3943;SDS011;1986;52.546;13.428;2022-07-29T03:52:39;16.70;;;15.90;;
3943;SDS011;1986;52.546;13.428;2022-07-29T03:55:07;15.93;;;15.23;;
3943;SDS011;1986;52.546;13.428;2022-07-29T03:57:36;16.17;;;15.47;;
3943;SDS011;1986;52.546;13.428;2022-07-29T04:00:06;17.23;;;15.97;;
3943;SDS011;1986;52.546;13.428;2022-07-29T04:02:34;16.57;;;15.77;;
3943;SDS011;1986;52.546;13.428;2022-07-29T04:05:05;16.90;;;16.10;;
3943;SDS011;1986;52.546;13.428;2022-07-29T04:07:43;16.90;;;16.20;;
3943;SDS011;1986;52.546;13.428;2022-07-29T04:10:11;17.20;;;16.30;;
3943;SDS011;1986;52.546;13.428;2022-07-29T04:12:41;16.27;;;15.57;;
3943;SDS011;1986;52.546;13.428;2022-07-29T04:15:09;17.43;;;16.63;;
3943;SDS011;1986;52.546;13.428;2022-07-29T04:17:37;17.03;;;16.23;;
3943;SDS011;1986;52.546;13.428;2022-07-29T04:20:04;16.30;;;15.60;;
3943;SDS011;1986;52.546;13.428;2022-07-29T04:22:32;17.07;;;16.33;;
3943;SDS011;1986;52.546;13.428;2022-07-29T04:25:00;17.03;;;16.33;;
3943;SDS011;1986;52.546;13.428;2022-07-29T04:27:28;20.07;;;18.57;;
3943;SDS011;1986;52.546;13.428;2022-07-29T04:29:56;17.10;;;16.30;;
3943;SDS011;1986;52.546;13.428;2022-07-29T04:32:23;17.93;;;17.10;;
3943;SDS011;1986;52.546;13.428;2022-07-29T04:34:50;17.80;;;16.70;;
3943;SDS011;1986;52.546;13.428;2022-07-29T04:37:17;16.90;;;16.20;;
3943;SDS011;1986;52.546;13.428;2022-07-29T04:39:45;17.30;;;16.50;;
3943;SDS011;1986;52.546;13.428;2022-07-29T04:42:14;17.80;;;16.90;;
3943;SDS011;1986;52.546;13.428;2022-07-29T04:44:44;18.33;;;17.43;;
3943;SDS011;1986;52.546;13.428;2022-07-29T04:47:10;17.83;;;17.00;;
3943;SDS011;1986;52.546;13.428;2022-07-29T04:49:38;17.93;;;17.03;;
3943;SDS011;1986;52.546;13.428;2022-07-29T04:52:08;17.33;;;16.53;;
3943;SDS011;1986;52.546;13.428;2022-07-29T04:54:35;35.17;;;17.47;;
3943;SDS011;1986;52.546;13.428;2022-07-29T04:57:02;18.10;;;17.20;;
3943;SDS011;1986;52.546;13.428;2022-07-29T04:59:31;17.50;;;16.70;;
3943;SDS011;1986;52.546;13.428;2022-07-29T05:01:59;17.50;;;16.70;;
3943;SDS011;1986;52.546;13.428;2022-07-29T05:04:27;18.00;;;17.10;;
3943;SDS011;1986;52.546;13.428;2022-07-29T05:06:55;17.97;;;17.07;;
3943;SDS011;1986;52.546;13.428;2022-07-29T05:09:24;17.40;;;16.60;;
3943;SDS011;1986;52.546;13.428;2022-07-29T05:11:53;17.60;;;16.80;;
3943;SDS011;1986;52.546;13.428;2022-07-29T05:14:25;18.30;;;17.40;;
3943;SDS011;1986;52.546;13.428;2022-07-29T05:16:55;17.47;;;16.67;;
3943;SDS011;1986;52.546;13.428;2022-07-29T05:19:22;17.90;;;17.03;;
3943;SDS011;1986;52.546;13.428;2022-07-29T05:21:50;18.00;;;17.10;;
3943;SDS011;1986;52.546;13.428;2022-07-29T05:24:20;18.50;;;17.60;;
3943;SDS011;1986;52.546;13.428;2022-07-29T05:26:46;19.30;;;18.20;;
3943;SDS011;1986;52.546;13.428;2022-07-29T05:29:22;18.30;;;17.40;;
3943;SDS011;1986;52.546;13.428;2022-07-29T05:31:49;19.40;;;18.40;;
3943;SDS011;1986;52.546;13.428;2022-07-29T05:34:20;19.00;;;18.00;;
3943;SDS011;1986;52.546;13.428;2022-07-29T05:36:50;19.33;;;18.33;;
3943;SDS011;1986;52.546;13.428;2022-07-29T05:39:20;19.60;;;18.50;;
3943;SDS011;1986;52.546;13.428;2022-07-29T05:41:47;19.20;;;18.10;;
3943;SDS011;1986;52.546;13.428;2022-07-29T05:44:14;19.53;;;18.43;;
3943;SDS011;1986;52.546;13.428;2022-07-29T05:46:42;19.60;;;18.50;;
3943;SDS011;1986;52.546;13.428;2022-07-29T05:49:08;19.20;;;18.20;;
3943;SDS011;1986;52.546;13.428;2022-07-29T05:51:37;19.80;;;18.73;;
3943;SDS011;1986;52.546;13.428;2022-07-29T05:54:07;19.80;;;18.50;;
3943;SDS011;1986;52.546;13.428;2022-07-29T05:56:35;19.37;;;18.37;;
3943;SDS011;1986;52.546;13.428;2022-07-29T05:59:02;19.43;;;18.33;;
3943;SDS011;1986;52.546;13.428;2022-07-29T06:01:29;21.03;;;18.90;;
3943;SDS011;1986;52.546;13.428;2022-07-29T06:03:57;19.47;;;18.47;;
3943;SDS011;1986;52.546;13.428;2022-07-29T06:06:24;19.70;;;18.60;;
3943;SDS011;1986;52.546;13.428;2022-07-29T06:08:52;20.17;;;18.97;;
3943;SDS011;1986;52.546;13.428;2022-07-29T06:11:19;19.80;;;18.70;;
3943;SDS011;1986;52.546;13.428;2022-07-29T06:13:46;20.43;;;19.33;;
3943;SDS011;1986;52.546;13.428;2022-07-29T06:16:13;20.30;;;19.10;;
3943;SDS011;1986;52.546;13.428;2022-07-29T06:18:42;20.50;;;19.30;;
3943;SDS011;1986;52.546;13.428;2022-07-29T06:21:08;20.43;;;19.23;;
3943;SDS011;1986;52.546;13.428;2022-07-29T06:23:36;20.80;;;19.60;;
3943;SDS011;1986;52.546;13.428;2022-07-29T06:26:05;22.33;;;20.83;;
3943;SDS011;1986;52.546;13.428;2022-07-29T06:28:33;21.53;;;20.23;;
3943;SDS011;1986;52.546;13.428;2022-07-29T06:31:01;23.93;;;22.17;;
3943;SDS011;1986;52.546;13.428;2022-07-29T06:33:28;22.50;;;21.00;;
3943;SDS011;1986;52.546;13.428;2022-07-29T06:35:56;22.60;;;21.10;;
3943;SDS011;1986;52.546;13.428;2022-07-29T06:38:23;23.40;;;21.80;;
3943;SDS011;1986;52.546;13.428;2022-07-29T06:40:50;26.30;;;24.43;;
3943;SDS011;1986;52.546;13.428;2022-07-29T06:43:31;24.30;;;22.60;;
3943;SDS011;1986;52.546;13.428;2022-07-29T06:46:01;23.90;;;22.23;;
3943;SDS011;1986;52.546;13.428;2022-07-29T06:48:29;22.70;;;21.20;;
3943;SDS011;1986;52.546;13.428;2022-07-29T06:51:00;22.80;;;21.30;;
3943;SDS011;1986;52.546;13.428;2022-07-29T06:53:29;22.87;;;21.33;;
3943;SDS011;1986;52.546;13.428;2022-07-29T06:55:58;23.80;;;22.20;;
3943;SDS011;1986;52.546;13.428;2022-07-29T06:58:25;23.90;;;22.30;;
3943;SDS011;1986;52.546;13.428;2022-07-29T07:00:54;23.40;;;21.83;;
3943;SDS011;1986;52.546;13.428;2022-07-29T07:03:24;23.60;;;22.03;;
3943;SDS011;1986;52.546;13.428;2022-07-29T07:05:51;23.30;;;21.70;;
3943;SDS011;1986;52.546;13.428;2022-07-29T07:08:20;23.30;;;21.80;;
3943;SDS011;1986;52.546;13.428;2022-07-29T07:10:48;22.90;;;21.40;;
3943;SDS011;1986;52.546;13.428;2022-07-29T07:13:15;23.67;;;22.07;;
3943;SDS011;1986;52.546;13.428;2022-07-29T07:15:44;22.57;;;21.07;;
3943;SDS011;1986;52.546;13.428;2022-07-29T07:18:14;23.77;;;22.17;;
3943;SDS011;1986;52.546;13.428;2022-07-29T07:20:42;22.87;;;21.37;;
3943;SDS011;1986;52.546;13.428;2022-07-29T07:23:09;23.80;;;22.20;;
3943;SDS011;1986;52.546;13.428;2022-07-29T07:25:36;23.20;;;21.60;;
3943;SDS011;1986;52.546;13.428;2022-07-29T07:28:03;24.60;;;22.90;;
3943;SDS011;1986;52.546;13.428;2022-07-29T07:30:31;24.73;;;22.93;;
3943;SDS011;1986;52.546;13.428;2022-07-29T07:33:01;24.20;;;22.50;;
3943;SDS011;1986;52.546;13.428;2022-07-29T07:35:29;25.03;;;23.27;;
3943;SDS011;1986;52.546;13.428;2022-07-29T07:37:56;25.30;;;23.50;;
3943;SDS011;1986;52.546;13.428;2022-07-29T07:40:24;28.03;;;25.83;;
3943;SDS011;1986;52.546;13.428;2022-07-29T07:42:51;25.83;;;24.00;;
3943;SDS011;1986;52.546;13.428;2022-07-29T07:45:18;26.13;;;24.30;;
3943;SDS011;1986;52.546;13.428;2022-07-29T07:47:45;25.40;;;23.60;;
3943;SDS011;1986;52.546;13.428;2022-07-29T07:50:12;26.60;;;24.60;;
3943;SDS011;1986;52.546;13.428;2022-07-29T07:52:47;26.87;;;24.87;;
3943;SDS011;1986;52.546;13.428;2022-07-29T07:55:17;26.60;;;24.60;;
3943;SDS011;1986;52.546;13.428;2022-07-29T07:57:46;28.67;;;25.97;;
3943;SDS011;1986;52.546;13.428;2022-07-29T08:00:14;28.33;;;26.13;;
3943;SDS011;1986;52.546;13.428;2022-07-29T08:02:42;27.10;;;25.10;;
3943;SDS011;1986;52.546;13.428;2022-07-29T08:05:10;27.60;;;25.60;;
3943;SDS011;1986;52.546;13.428;2022-07-29T08:07:41;29.30;;;27.20;;
3943;SDS011;1986;52.546;13.428;2022-07-29T08:10:11;28.67;;;26.57;;
3943;SDS011;1986;52.546;13.428;2022-07-29T08:12:38;28.60;;;26.50;;
3943;SDS011;1986;52.546;13.428;2022-07-29T08:15:06;28.63;;;26.53;;
3943;SDS011;1986;52.546;13.428;2022-07-29T08:17:33;29.70;;;27.60;;
3943;SDS011;1986;52.546;13.428;2022-07-29T08:20:06;29.70;;;27.50;;
3943;SDS011;1986;52.546;13.428;2022-07-29T08:22:33;31.13;;;28.83;;
3943;SDS011;1986;52.546;13.428;2022-07-29T08:25:00;29.77;;;27.57;;
3943;SDS011;1986;52.546;13.428;2022-07-29T08:27:29;30.53;;;28.33;;
3943;SDS011;1986;52.546;13.428;2022-07-29T08:29:57;29.33;;;27.23;;
3943;SDS011;1986;52.546;13.428;2022-07-29T08:32:24;29.70;;;27.60;;
3943;SDS011;1986;52.546;13.428;2022-07-29T08:34:53;30.70;;;28.50;;
3943;SDS011;1986;52.546;13.428;2022-07-29T08:37:21;30.00;;;27.90;;
3943;SDS011;1986;52.546;13.428;2022-07-29T08:39:52;29.83;;;27.73;;
3943;SDS011;1986;52.546;13.428;2022-07-29T08:42:32;32.10;;;29.70;;
3943;SDS011;1986;52.546;13.428;2022-07-29T08:45:12;30.40;;;28.20;;
3943;SDS011;1986;52.546;13.428;2022-07-29T08:48:11;30.53;;;28.33;;
3943;SDS011;1986;52.546;13.428;2022-07-29T08:50:38;31.17;;;28.97;;
3943;SDS011;1986;52.546;13.428;2022-07-29T08:53:19;31.93;;;29.63;;
3943;SDS011;1986;52.546;13.428;2022-07-29T08:55:48;31.10;;;28.90;;
3943;SDS011;1986;52.546;13.428;2022-07-29T08:58:17;31.23;;;28.93;;
3943;SDS011;1986;52.546;13.428;2022-07-29T09:00:49;31.63;;;29.43;;
3943;SDS011;1986;52.546;13.428;2022-07-29T09:03:20;31.50;;;29.20;;
3943;SDS011;1986;52.546;13.428;2022-07-29T09:05:57;32.60;;;30.30;;
3943;SDS011;1986;52.546;13.428;2022-07-29T09:08:26;32.83;;;30.43;;
3943;SDS011;1986;52.546;13.428;2022-07-29T09:10:56;33.00;;;30.60;;
3943;SDS011;1986;52.546;13.428;2022-07-29T09:13:28;33.97;;;31.57;;
3943;SDS011;1986;52.546;13.428;2022-07-29T09:15:59;33.20;;;30.50;;
3943;SDS011;1986;52.546;13.428;2022-07-29T09:18:33;32.60;;;30.20;;
3943;SDS011;1986;52.546;13.428;2022-07-29T09:21:22;31.77;;;29.47;;
3943;SDS011;1986;52.546;13.428;2022-07-29T09:24:09;31.30;;;28.50;;
3943;SDS011;1986;52.546;13.428;2022-07-29T09:26:38;31.10;;;28.90;;
3943;SDS011;1986;52.546;13.428;2022-07-29T09:35:28;30.47;;;28.20;;
3943;SDS011;1986;52.546;13.428;2022-07-29T09:38:10;31.00;;;28.70;;
3943;SDS011;1986;52.546;13.428;2022-07-29T09:40:38;30.80;;;28.50;;
3943;SDS011;1986;52.546;13.428;2022-07-29T09:43:10;31.20;;;28.90;;
3943;SDS011;1986;52.546;13.428;2022-07-29T09:45:37;31.93;;;29.63;;
3943;SDS011;1986;52.546;13.428;2022-07-29T09:48:14;30.37;;;28.07;;
3943;SDS011;1986;52.546;13.428;2022-07-29T09:50:45;32.60;;;30.20;;
3943;SDS011;1986;52.546;13.428;2022-07-29T09:53:24;32.50;;;29.90;;
3943;SDS011;1986;52.546;13.428;2022-07-29T09:55:57;31.30;;;28.90;;
3943;SDS011;1986;52.546;13.428;2022-07-29T09:58:27;33.07;;;30.67;;
3943;SDS011;1986;52.546;13.428;2022-07-29T10:01:00;30.47;;;28.27;;
3943;SDS011;1986;52.546;13.428;2022-07-29T10:03:31;32.40;;;30.00;;
3943;SDS011;1986;52.546;13.428;2022-07-29T10:06:07;31.77;;;29.47;;
3943;SDS011;1986;52.546;13.428;2022-07-29T10:08:35;30.37;;;27.97;;
3943;SDS011;1986;52.546;13.428;2022-07-29T10:11:09;30.90;;;28.70;;
3943;SDS011;1986;52.546;13.428;2022-07-29T10:13:41;31.40;;;29.10;;
3943;SDS011;1986;52.546;13.428;2022-07-29T10:16:09;31.47;;;29.17;;
3943;SDS011;1986;52.546;13.428;2022-07-29T10:18:39;32.83;;;30.33;;
3943;SDS011;1986;52.546;13.428;2022-07-29T10:21:06;30.70;;;28.40;;
3943;SDS011;1986;52.546;13.428;2022-07-29T10:23:37;33.50;;;31.10;;
3943;SDS011;1986;52.546;13.428;2022-07-29T10:26:05;34.47;;;32.00;;
3943;SDS011;1986;52.546;13.428;2022-07-29T10:28:32;34.30;;;31.70;;
3943;SDS011;1986;52.546;13.428;2022-07-29T10:31:01;32.10;;;29.80;;
3943;SDS011;1986;52.546;13.428;2022-07-29T10:33:40;33.37;;;30.97;;
3943;SDS011;1986;52.546;13.428;2022-07-29T10:36:21;31.63;;;29.33;;
3943;SDS011;1986;52.546;13.428;2022-07-29T10:39:00;32.53;;;30.10;;
3943;SDS011;1986;52.546;13.428;2022-07-29T10:41:43;33.30;;;30.90;;
3943;SDS011;1986;52.546;13.428;2022-07-29T10:44:21;34.33;;;31.83;;
3943;SDS011;1986;52.546;13.428;2022-07-29T10:46:50;34.80;;;32.30;;
3943;SDS011;1986;52.546;13.428;2022-07-29T10:49:20;32.57;;;30.17;;
3943;SDS011;1986;52.546;13.428;2022-07-29T10:52:00;32.20;;;29.90;;
3943;SDS011;1986;52.546;13.428;2022-07-29T10:54:40;33.43;;;31.03;;
3943;SDS011;1986;52.546;13.428;2022-07-29T10:57:22;33.20;;;30.80;;
3943;SDS011;1986;52.546;13.428;2022-07-29T11:02:58;34.70;;;32.20;;
3943;SDS011;1986;52.546;13.428;2022-07-29T11:05:27;34.10;;;31.70;;
3943;SDS011;1986;52.546;13.428;2022-07-29T11:10:50;32.10;;;29.80;;
3943;SDS011;1986;52.546;13.428;2022-07-29T11:16:15;32.67;;;30.27;;
3943;SDS011;1986;52.546;13.428;2022-07-29T11:21:49;32.63;;;30.23;;
3943;SDS011;1986;52.546;13.428;2022-07-29T11:24:18;31.60;;;29.20;;
3943;SDS011;1986;52.546;13.428;2022-07-29T11:29:47;32.43;;;30.07;;
3943;SDS011;1986;52.546;13.428;2022-07-29T11:32:35;33.13;;;30.73;;
3943;SDS011;1986;52.546;13.428;2022-07-29T11:35:11;34.10;;;31.70;;
3943;SDS011;1986;52.546;13.428;2022-07-29T11:37:41;35.70;;;33.20;;
3943;SDS011;1986;52.546;13.428;2022-07-29T11:40:08;34.30;;;31.80;;
3943;SDS011;1986;52.546;13.428;2022-07-29T11:42:44;36.33;;;33.73;;
3943;SDS011;1986;52.546;13.428;2022-07-29T11:45:15;35.63;;;33.03;;
3943;SDS011;1986;52.546;13.428;2022-07-29T11:47:48;35.60;;;33.00;;
3943;SDS011;1986;52.546;13.428;2022-07-29T11:50:17;35.40;;;32.80;;
3943;SDS011;1986;52.546;13.428;2022-07-29T11:52:58;36.83;;;34.13;;
3943;SDS011;1986;52.546;13.428;2022-07-29T11:55:26;36.63;;;34.03;;
3943;SDS011;1986;52.546;13.428;2022-07-29T11:57:54;36.40;;;33.80;;
3943;SDS011;1986;52.546;13.428;2022-07-29T12:00:24;35.13;;;32.67;;
3943;SDS011;1986;52.546;13.428;2022-07-29T12:02:53;33.40;;;31.00;;
3943;SDS011;1986;52.546;13.428;2022-07-29T12:05:29;34.83;;;32.40;;
3943;SDS011;1986;52.546;13.428;2022-07-29T12:08:06;33.27;;;30.87;;
3943;SDS011;1986;52.546;13.428;2022-07-29T12:10:34;34.60;;;32.00;;
3943;SDS011;1986;52.546;13.428;2022-07-29T12:13:01;32.07;;;29.77;;
3943;SDS011;1986;52.546;13.428;2022-07-29T12:15:29;34.70;;;32.23;;
3943;SDS011;1986;52.546;13.428;2022-07-29T12:17:56;35.33;;;32.83;;
3943;SDS011;1986;52.546;13.428;2022-07-29T12:20:23;33.70;;;31.30;;
3943;SDS011;1986;52.546;13.428;2022-07-29T12:22:51;32.70;;;30.00;;
3943;SDS011;1986;52.546;13.428;2022-07-29T12:25:21;34.63;;;31.80;;
3943;SDS011;1986;52.546;13.428;2022-07-29T12:27:58;32.20;;;29.90;;
3943;SDS011;1986;52.546;13.428;2022-07-29T12:30:34;32.00;;;29.70;;
3943;SDS011;1986;52.546;13.428;2022-07-29T12:33:13;32.40;;;30.10;;
3943;SDS011;1986;52.546;13.428;2022-07-29T12:35:44;31.13;;;28.93;;
3943;SDS011;1986;52.546;13.428;2022-07-29T12:38:13;31.47;;;29.17;;
3943;SDS011;1986;52.546;13.428;2022-07-29T12:40:42;32.50;;;30.20;;
3943;SDS011;1986;52.546;13.428;2022-07-29T12:43:11;33.40;;;31.00;;
3943;SDS011;1986;52.546;13.428;2022-07-29T12:45:41;32.63;;;30.33;;
3943;SDS011;1986;52.546;13.428;2022-07-29T12:48:12;32.70;;;30.40;;
3943;SDS011;1986;52.546;13.428;2022-07-29T12:50:55;33.40;;;31.10;;
3943;SDS011;1986;52.546;13.428;2022-07-29T12:53:23;34.27;;;31.67;;
3943;SDS011;1986;52.546;13.428;2022-07-29T12:55:53;34.90;;;32.40;;
3943;SDS011;1986;52.546;13.428;2022-07-29T12:58:30;32.77;;;30.47;;
3943;SDS011;1986;52.546;13.428;2022-07-29T13:01:05;35.53;;;32.57;;
3943;SDS011;1986;52.546;13.428;2022-07-29T13:03:47;33.70;;;31.30;;
3943;SDS011;1986;52.546;13.428;2022-07-29T13:06:30;35.07;;;32.57;;
3943;SDS011;1986;52.546;13.428;2022-07-29T13:09:07;34.63;;;32.13;;
3943;SDS011;1986;52.546;13.428;2022-07-29T13:11:43;33.20;;;30.80;;
3943;SDS011;1986;52.546;13.428;2022-07-29T13:14:12;33.07;;;30.43;;
3943;SDS011;1986;52.546;13.428;2022-07-29T13:17:02;34.13;;;31.73;;
3943;SDS011;1986;52.546;13.428;2022-07-29T13:19:35;32.83;;;30.53;;
3943;SDS011;1986;52.546;13.428;2022-07-29T13:22:05;32.77;;;30.37;;
3943;SDS011;1986;52.546;13.428;2022-07-29T13:24:32;34.30;;;31.90;;
3943;SDS011;1986;52.546;13.428;2022-07-29T13:27:01;33.30;;;30.90;;
3943;SDS011;1986;52.546;13.428;2022-07-29T13:29:31;34.80;;;32.40;;
3943;SDS011;1986;52.546;13.428;2022-07-29T13:31:59;1.63;;;1.63;;
3943;SDS011;1986;52.546;13.428;2022-07-29T13:34:27;2.93;;;2.83;;
3943;SDS011;1986;52.546;13.428;2022-07-29T13:37:00;9.20;;;8.80;;
3943;SDS011;1986;52.546;13.428;2022-07-29T13:39:36;8.80;;;8.50;;
3943;SDS011;1986;52.546;13.428;2022-07-29T13:42:08;10.33;;;10.03;;
3943;SDS011;1986;52.546;13.428;2022-07-29T13:44:43;12.50;;;12.00;;
3943;SDS011;1986;52.546;13.428;2022-07-29T13:47:12;6.33;;;6.00;;
3943;SDS011;1986;52.546;13.428;2022-07-29T13:49:45;0.70;;;0.70;;
3943;SDS011;1986;52.546;13.428;2022-07-29T13:52:13;1.00;;;1.00;;
3943;SDS011;1986;52.546;13.428;2022-07-29T13:54:40;1.30;;;1.30;;
3943;SDS011;1986;52.546;13.428;2022-07-29T13:57:10;9.17;;;8.77;;
3943;SDS011;1986;52.546;13.428;2022-07-29T13:59:38;29.80;;;27.80;;
3943;SDS011;1986;52.546;13.428;2022-07-29T14:02:06;31.97;;;30.00;;
3943;SDS011;1986;52.546;13.428;2022-07-29T14:04:43;38.60;;;35.60;;
3943;SDS011;1986;52.546;13.428;2022-07-29T14:07:11;93.57;;;86.53;;
3943;SDS011;1986;52.546;13.428;2022-07-29T14:09:38;95.00;;;87.60;;
3943;SDS011;1986;52.546;13.428;2022-07-29T14:12:18;94.63;;;86.93;;
3943;SDS011;1986;52.546;13.428;2022-07-29T14:14:46;77.37;;;71.07;;
3943;SDS011;1986;52.546;13.428;2022-07-29T14:17:13;40.40;;;37.60;;
3943;SDS011;1986;52.546;13.428;2022-07-29T14:19:40;30.93;;;28.93;;
3943;SDS011;1986;52.546;13.428;2022-07-29T14:22:08;32.60;;;30.40;;
3943;SDS011;1986;52.546;13.428;2022-07-29T14:24:35;30.13;;;28.23;;
3943;SDS011;1986;52.546;13.428;2022-07-29T14:27:03;29.50;;;27.70;;
3943;SDS011;1986;52.546;13.428;2022-07-29T14:29:36;28.90;;;27.10;;
3943;SDS011;1986;52.546;13.428;2022-07-29T14:32:06;31.27;;;29.17;;
3943;SDS011;1986;52.546;13.428;2022-07-29T14:34:33;34.90;;;32.60;;
3943;SDS011;1986;52.546;13.428;2022-07-29T14:37:00;37.10;;;34.50;;
3943;SDS011;1986;52.546;13.428;2022-07-29T14:39:30;35.77;;;33.37;;
3943;SDS011;1986;52.546;13.428;2022-07-29T14:41:58;36.50;;;34.10;;
3943;SDS011;1986;52.546;13.428;2022-07-29T14:44:31;35.20;;;32.87;;
3943;SDS011;1986;52.546;13.428;2022-07-29T14:47:01;33.50;;;31.10;;
3943;SDS011;1986;52.546;13.428;2022-07-29T14:49:31;34.80;;;32.40;;
3943;SDS011;1986;52.546;13.428;2022-07-29T14:52:01;34.97;;;32.57;;
3943;SDS011;1986;52.546;13.428;2022-07-29T14:54:28;34.40;;;32.00;;
3943;SDS011;1986;52.546;13.428;2022-07-29T14:56:55;34.73;;;32.33;;
3943;SDS011;1986;52.546;13.428;2022-07-29T14:59:22;34.00;;;31.70;;
3943;SDS011;1986;52.546;13.428;2022-07-29T15:01:50;34.90;;;32.50;;
3943;SDS011;1986;52.546;13.428;2022-07-29T15:04:19;33.97;;;31.57;;
3943;SDS011;1986;52.546;13.428;2022-07-29T15:06:46;34.37;;;31.87;;
3943;SDS011;1986;52.546;13.428;2022-07-29T15:09:13;32.70;;;30.50;;
3943;SDS011;1986;52.546;13.428;2022-07-29T15:11:40;34.07;;;31.70;;
3943;SDS011;1986;52.546;13.428;2022-07-29T15:14:10;34.43;;;32.03;;
3943;SDS011;1986;52.546;13.428;2022-07-29T15:16:38;35.77;;;33.17;;
3943;SDS011;1986;52.546;13.428;2022-07-29T15:19:07;33.40;;;31.00;;
3943;SDS011;1986;52.546;13.428;2022-07-29T15:21:35;33.93;;;31.53;;